Irricana, Canada
Current Conditions -  °F | °C
As of 5:00 AM on Sunday 21 Dec 2014 (Local Time) from CYYC Reporting Station
Broken Clouds Broken Clouds  
Wind Chill: 28°   Ceiling: 10000
Heat Index: 28°   Visibility: 15mi
Dew Point: 21°   Wind: 3mph
Humidity: 74%   Direction: 270°W
Pressure: 29.15"   Gusts: NA
Location:  51.32°N, 113.62°W
Report Text: CYYC 211200Z 27003KT 190V280 15SM BKN100 M02/M06 A2915 RMK AC6 SNOW COVER/TRACE LOOSE SLP910
Loading
Personal Weather Stations






























Interactive Weather Map New forecast layout! Learn more

10-Day Weather Forecast

Advertisements
Track Severe Weather on mobile